createdAt,value
2023-06-07T00:02:37.018Z,47.32
2023-06-07T00:05:10.630Z,47.63
2023-06-07T00:07:37.698Z,48.13
2023-06-07T00:10:05.551Z,47.76
2023-06-07T00:12:33.356Z,48.03
2023-06-07T00:15:03.613Z,47.69
2023-06-07T00:17:31.571Z,47.89
2023-06-07T00:19:58.787Z,47.41
2023-06-07T00:22:26.492Z,47.42
2023-06-07T00:24:53.930Z,48.12
2023-06-07T00:27:21.221Z,47.72
2023-06-07T00:29:48.362Z,48.36
2023-06-07T00:32:15.706Z,47.99
2023-06-07T00:34:42.881Z,47.89
2023-06-07T00:37:10.068Z,48.40
2023-06-07T00:39:37.159Z,48.79
2023-06-07T00:42:06.555Z,48.46
2023-06-07T00:44:34.349Z,48.48
2023-06-07T00:47:02.260Z,48.69
2023-06-07T00:49:29.954Z,48.75
2023-06-07T00:51:58.350Z,48.98
2023-06-07T00:54:25.494Z,49.45
2023-06-07T00:56:52.536Z,49.42
2023-06-07T00:59:21.487Z,49.77
2023-06-07T01:01:53.367Z,49.85
2023-06-07T01:04:25.176Z,49.97
2023-06-07T01:06:55.353Z,50.09
2023-06-07T01:09:23.044Z,49.85
2023-06-07T01:11:53.534Z,50.00
2023-06-07T01:14:21.501Z,50.12
2023-06-07T01:16:53.446Z,50.08
2023-06-07T01:19:26.448Z,50.44
2023-06-07T01:22:00.329Z,50.25
2023-06-07T01:24:31.137Z,50.20
2023-06-07T01:26:59.082Z,50.22
2023-06-07T01:29:27.495Z,50.38
2023-06-07T01:31:57.861Z,50.79
2023-06-07T01:34:25.634Z,50.28
2023-06-07T01:36:55.072Z,51.04
2023-06-07T01:39:24.703Z,50.99
2023-06-07T01:41:52.969Z,51.32
2023-06-07T01:44:20.974Z,51.20
2023-06-07T01:46:48.489Z,52.31
2023-06-07T01:49:18.960Z,52.08
2023-06-07T01:51:45.958Z,51.92
2023-06-07T01:54:16.032Z,52.60
2023-06-07T01:57:13.494Z,52.91
2023-06-07T01:59:51.641Z,53.49
2023-06-07T02:02:26.463Z,53.32
2023-06-07T02:04:59.311Z,52.99
2023-06-07T02:07:29.583Z,53.13
2023-06-07T02:10:02.459Z,53.49
2023-06-07T02:12:31.195Z,53.12
2023-06-07T02:15:01.357Z,53.12
2023-06-07T02:17:29.904Z,53.01
2023-06-07T02:19:57.915Z,52.79
2023-06-07T02:22:25.032Z,53.22
2023-06-07T02:24:52.091Z,53.43
2023-06-07T02:27:19.153Z,53.44
2023-06-07T02:29:46.071Z,53.53
2023-06-07T02:32:12.990Z,53.46
2023-06-07T02:34:40.657Z,53.56
2023-06-07T02:37:07.525Z,53.56
2023-06-07T02:39:34.546Z,54.32
2023-06-07T02:42:01.419Z,54.31
2023-06-07T02:44:29.430Z,53.86
2023-06-07T02:46:58.509Z,53.84
2023-06-07T02:49:25.813Z,53.67
2023-06-07T02:51:54.163Z,54.04
2023-06-07T02:54:21.761Z,54.64
2023-06-07T02:56:50.063Z,54.28
2023-06-07T02:59:16.800Z,55.33
2023-06-07T03:01:45.363Z,54.67
2023-06-07T03:04:12.765Z,55.20
2023-06-07T03:06:42.508Z,54.96
2023-06-07T03:09:21.682Z,55.05
2023-06-07T03:11:49.980Z,55.42
2023-06-07T03:14:20.965Z,55.27
2023-06-07T03:16:50.903Z,55.36
2023-06-07T03:19:17.760Z,55.30
2023-06-07T03:21:45.811Z,55.19
2023-06-07T03:24:15.153Z,54.81
2023-06-07T03:26:42.497Z,54.43
2023-06-07T03:29:10.928Z,54.58
2023-06-07T03:31:39.474Z,54.62
2023-06-07T03:34:10.041Z,54.83
2023-06-07T03:36:37.054Z,54.46
2023-06-07T03:39:04.162Z,54.49
2023-06-07T03:41:32.377Z,54.44
2023-06-07T03:44:03.526Z,54.63
2023-06-07T03:46:31.160Z,54.28
2023-06-07T03:48:58.658Z,53.98
2023-06-07T03:51:27.277Z,54.03
2023-06-07T03:53:57.363Z,54.08
2023-06-07T03:56:24.319Z,53.85
2023-06-07T03:58:51.662Z,52.88
2023-06-07T04:01:22.811Z,52.49
2023-06-07T04:03:49.747Z,52.21
2023-06-07T04:06:17.637Z,52.37
2023-06-07T04:08:45.086Z,52.04
2023-06-07T04:11:11.746Z,51.28
2023-06-07T04:13:43.143Z,50.73
2023-06-07T04:16:10.599Z,50.30
2023-06-07T04:18:37.618Z,49.79
2023-06-07T04:21:05.151Z,49.44
2023-06-07T04:23:33.283Z,49.12
2023-06-07T04:26:01.619Z,48.82
2023-06-07T04:28:28.828Z,48.15
2023-06-07T04:31:00.236Z,47.77
2023-06-07T04:33:29.024Z,47.49
2023-06-07T04:36:00.528Z,47.58
2023-06-07T04:38:27.705Z,46.97
2023-06-07T04:41:07.329Z,47.28
2023-06-07T04:43:39.058Z,46.70
2023-06-07T04:46:10.560Z,46.19
2023-06-07T04:48:42.324Z,46.27
2023-06-07T04:51:09.632Z,46.30
2023-06-07T04:53:46.144Z,46.33
2023-06-07T04:56:18.506Z,45.29
2023-06-07T04:58:46.187Z,45.06
2023-06-07T05:01:16.993Z,45.23
2023-06-07T05:03:44.203Z,44.84
2023-06-07T05:06:14.313Z,44.59
2023-06-07T05:08:41.695Z,44.07
2023-06-07T05:11:08.489Z,44.56
2023-06-07T05:13:35.353Z,44.51
2023-06-07T05:16:04.215Z,44.41
2023-06-07T05:18:33.255Z,44.54
2023-06-07T05:21:01.687Z,44.24
2023-06-07T05:23:31.178Z,44.50
2023-06-07T05:25:59.887Z,43.88
2023-06-07T05:28:26.655Z,43.29
2023-06-07T05:30:57.448Z,43.08
2023-06-07T05:33:24.898Z,42.69
2023-06-07T05:35:51.635Z,43.04
2023-06-07T05:38:19.179Z,43.42
2023-06-07T05:40:45.953Z,42.52
2023-06-07T05:43:12.882Z,42.71
2023-06-07T05:45:41.981Z,43.28
2023-06-07T05:48:09.538Z,43.11
2023-06-07T05:50:36.302Z,43.48
2023-06-07T05:53:03.236Z,42.71
2023-06-07T05:55:30.116Z,42.41
2023-06-07T05:58:01.688Z,42.06
2023-06-07T06:00:33.044Z,42.16
2023-06-07T06:03:02.879Z,42.22
2023-06-07T06:05:30.225Z,42.17
2023-06-07T06:07:58.380Z,42.05
2023-06-07T06:10:26.620Z,41.94
2023-06-07T06:12:53.500Z,41.94
2023-06-07T06:15:20.352Z,41.32
2023-06-07T06:17:50.374Z,41.32
2023-06-07T06:20:18.003Z,40.94
2023-06-07T06:22:46.192Z,41.17
2023-06-07T06:25:16.031Z,40.13
2023-06-07T06:27:42.791Z,40.03
2023-06-07T06:30:10.062Z,39.68
2023-06-07T06:32:37.810Z,39.78
2023-06-07T06:35:08.495Z,39.89
2023-06-07T06:37:35.300Z,39.55
2023-06-07T06:40:02.186Z,39.27
2023-06-07T06:42:28.987Z,39.58
2023-06-07T06:45:17.849Z,39.11
2023-06-07T06:47:44.700Z,38.98
2023-06-07T06:50:30.092Z,39.04
2023-06-07T06:52:58.925Z,38.18
2023-06-07T06:55:26.003Z,38.23
2023-06-07T06:57:53.064Z,38.46
2023-06-07T07:00:20.371Z,38.04
2023-06-07T07:02:47.249Z,37.82
2023-06-07T07:05:15.275Z,37.95
2023-06-07T07:07:42.672Z,37.27
2023-06-07T07:10:09.866Z,37.33
2023-06-07T07:12:40.241Z,36.48
2023-06-07T07:15:09.857Z,35.40
2023-06-07T07:17:44.696Z,34.59
2023-06-07T07:20:12.621Z,35.55
2023-06-07T07:22:39.944Z,34.88
2023-06-07T07:25:07.714Z,34.55
2023-06-07T07:27:34.805Z,34.77
2023-06-07T07:30:02.840Z,34.50
2023-06-07T07:32:29.927Z,34.65
2023-06-07T07:34:56.846Z,34.79
2023-06-07T07:37:26.752Z,33.93
2023-06-07T07:39:53.515Z,34.15
2023-06-07T07:42:20.287Z,33.28
2023-06-07T07:44:46.998Z,33.72
2023-06-07T07:47:13.924Z,32.58
2023-06-07T07:49:40.910Z,32.40
2023-06-07T07:52:07.956Z,31.70
2023-06-07T07:54:34.926Z,32.27
2023-06-07T07:57:02.483Z,31.75
2023-06-07T07:59:29.372Z,31.38
2023-06-07T08:01:57.031Z,29.45
2023-06-07T08:04:23.923Z,27.36
2023-06-07T08:06:55.260Z,28.30
2023-06-07T08:09:22.308Z,27.78
2023-06-07T08:11:50.092Z,26.85
2023-06-07T08:14:16.936Z,25.82
2023-06-07T08:16:44.308Z,26.13
2023-06-07T08:19:11.713Z,26.07
2023-06-07T08:21:38.825Z,27.69
2023-06-07T08:24:06.507Z,26.40
2023-06-07T08:26:33.435Z,25.53
2023-06-07T08:29:00.351Z,24.94
2023-06-07T08:31:30.167Z,24.83
2023-06-07T08:34:00.661Z,25.16
2023-06-07T08:36:27.659Z,25.11
2023-06-07T08:38:54.555Z,24.91
2023-06-07T08:41:22.501Z,25.84
2023-06-07T08:43:50.778Z,25.10
2023-06-07T08:46:18.452Z,25.10
2023-06-07T08:48:48.818Z,24.43
2023-06-07T08:51:17.912Z,24.73
2023-06-07T08:53:59.491Z,23.20
2023-06-07T08:56:28.817Z,23.59
2023-06-07T08:58:56.405Z,23.37
2023-06-07T09:01:24.603Z,23.02
2023-06-07T09:03:55.261Z,22.95
2023-06-07T09:06:23.568Z,22.80
2023-06-07T09:08:51.007Z,22.94
2023-06-07T09:11:17.824Z,23.08
2023-06-07T09:13:45.270Z,21.33
2023-06-07T09:16:12.984Z,21.94
2023-06-07T09:18:44.613Z,20.82
2023-06-07T09:21:22.430Z,20.79
2023-06-07T09:23:50.615Z,19.55
2023-06-07T09:26:18.712Z,19.75
2023-06-07T09:28:49.054Z,19.54
2023-06-07T09:31:30.208Z,20.14
2023-06-07T09:33:58.187Z,20.99
2023-06-07T09:36:30.213Z,20.40
2023-06-07T09:38:58.328Z,20.97
2023-06-07T09:41:31.449Z,19.66
2023-06-07T09:43:58.561Z,19.83
2023-06-07T09:46:36.633Z,19.43
2023-06-07T09:49:04.491Z,20.05
2023-06-07T09:51:40.453Z,20.01
2023-06-07T09:54:09.118Z,19.71
2023-06-07T09:56:40.670Z,19.29
2023-06-07T09:59:08.029Z,19.42
2023-06-07T10:01:39.495Z,19.52
2023-06-07T10:04:07.431Z,19.54
2023-06-07T10:06:40.240Z,19.85
2023-06-07T10:09:08.943Z,19.58
2023-06-07T10:11:38.044Z,18.35
2023-06-07T10:14:08.978Z,18.46
2023-06-07T10:16:37.688Z,18.00
2023-06-07T10:19:18.989Z,17.91
2023-06-07T10:21:50.733Z,18.83
2023-06-07T10:24:21.795Z,17.93
2023-06-07T10:26:55.205Z,17.54
2023-06-07T10:29:33.511Z,17.94
2023-06-07T10:32:14.334Z,16.47
2023-06-07T10:34:42.362Z,16.96
2023-06-07T10:37:09.208Z,16.93
2023-06-07T10:39:39.298Z,16.78
2023-06-07T10:42:07.919Z,17.24
2023-06-07T10:44:37.650Z,17.12
2023-06-07T10:47:22.824Z,16.72
2023-06-07T10:49:51.955Z,16.31
2023-06-07T10:52:19.344Z,16.04
2023-06-07T10:54:46.613Z,16.18
2023-06-07T10:57:13.802Z,16.92
2023-06-07T10:59:41.327Z,16.27
2023-06-07T11:02:25.580Z,16.41
2023-06-07T11:05:04.547Z,16.33
2023-06-07T11:07:32.765Z,15.17
2023-06-07T11:10:06.589Z,13.19
2023-06-07T11:12:37.453Z,13.09
2023-06-07T11:15:37.712Z,12.09
2023-06-07T11:18:11.163Z,11.76
2023-06-07T11:20:43.905Z,10.61
2023-06-07T11:23:23.873Z,10.10
2023-06-07T11:25:55.380Z,9.00
2023-06-07T11:28:29.388Z,9.27
2023-06-07T11:30:57.464Z,8.96
2023-06-07T11:33:24.968Z,8.38
2023-06-07T11:35:52.250Z,7.04
2023-06-07T11:38:20.471Z,6.55
2023-06-07T11:40:48.255Z,5.85
2023-06-07T11:43:16.900Z,5.53
2023-06-07T11:45:44.770Z,4.44
2023-06-07T11:48:12.019Z,4.43
2023-06-07T11:50:40.638Z,3.89
2023-06-07T11:53:13.475Z,4.53
2023-06-07T11:55:40.899Z,4.74
2023-06-07T11:58:07.673Z,5.46
2023-06-07T12:00:36.525Z,5.29
2023-06-07T12:03:09.215Z,4.49
2023-06-07T12:05:36.425Z,4.48
2023-06-07T12:08:08.821Z,5.10
2023-06-07T12:10:39.608Z,5.19
2023-06-07T12:13:15.194Z,4.32
2023-06-07T12:15:49.311Z,4.95
2023-06-07T12:18:29.380Z,3.96
2023-06-07T12:21:13.704Z,4.73
2023-06-07T12:23:48.939Z,4.79
2023-06-07T12:26:21.789Z,5.40
2023-06-07T12:28:50.925Z,5.28
2023-06-07T12:31:21.084Z,6.50
2023-06-07T12:33:58.714Z,7.72
2023-06-07T12:36:31.182Z,9.44
2023-06-07T12:39:05.419Z,11.89
2023-06-07T12:41:33.861Z,13.72
2023-06-07T12:44:03.224Z,15.19
2023-06-07T12:46:31.012Z,15.84
2023-06-07T12:48:59.587Z,16.64
2023-06-07T12:51:27.075Z,17.50
2023-06-07T12:53:54.541Z,17.55
2023-06-07T12:56:22.386Z,17.56
2023-06-07T12:58:49.669Z,17.48
2023-06-07T13:01:19.561Z,17.93
2023-06-07T13:03:46.902Z,18.29
2023-06-07T13:06:13.746Z,19.11
2023-06-07T13:08:43.915Z,18.66
2023-06-07T13:11:10.949Z,18.21
2023-06-07T13:13:37.809Z,18.33
2023-06-07T13:16:09.008Z,17.92
2023-06-07T13:18:39.876Z,18.11
2023-06-07T13:21:07.224Z,18.70
2023-06-07T13:23:34.615Z,18.89
2023-06-07T13:26:02.859Z,19.05
2023-06-07T13:28:29.696Z,19.19
2023-06-07T13:30:56.873Z,19.06
2023-06-07T13:33:23.813Z,19.52
2023-06-07T13:35:51.442Z,18.46
2023-06-07T13:38:18.295Z,18.33
2023-06-07T13:40:45.656Z,18.36
2023-06-07T13:43:12.418Z,18.85
2023-06-07T13:45:41.743Z,18.16
2023-06-07T13:48:10.262Z,19.05
2023-06-07T13:50:41.768Z,19.32
2023-06-07T13:53:10.628Z,19.55
2023-06-07T13:55:37.763Z,18.83
2023-06-07T13:58:04.726Z,18.79
2023-06-07T14:00:31.990Z,18.51
2023-06-07T14:02:59.008Z,17.39
2023-06-07T14:05:26.068Z,17.70
2023-06-07T14:07:53.023Z,18.37
2023-06-07T14:10:19.970Z,18.96
2023-06-07T14:12:47.505Z,18.60
2023-06-07T14:15:14.304Z,19.00
2023-06-07T14:17:41.508Z,19.07
2023-06-07T14:20:09.216Z,18.60
2023-06-07T14:22:36.040Z,19.13
2023-06-07T14:25:03.226Z,18.68
2023-06-07T14:27:30.338Z,18.73
2023-06-07T14:29:57.077Z,18.99
2023-06-07T14:32:23.984Z,19.54
2023-06-07T14:34:51.292Z,19.98
2023-06-07T14:37:18.242Z,20.24
2023-06-07T14:39:45.127Z,20.06
2023-06-07T14:42:15.272Z,20.18
2023-06-07T14:44:44.235Z,20.74
2023-06-07T14:47:11.232Z,20.01
2023-06-07T14:49:37.974Z,20.27
2023-06-07T14:52:04.801Z,20.62
2023-06-07T14:54:31.716Z,21.02
2023-06-07T14:56:58.467Z,20.50
2023-06-07T14:59:25.403Z,20.49
2023-06-07T15:01:52.424Z,20.20
2023-06-07T15:04:19.375Z,20.05
2023-06-07T15:06:47.306Z,20.49
2023-06-07T15:09:14.129Z,20.38
2023-06-07T15:11:41.080Z,20.68
2023-06-07T15:14:07.912Z,20.13
2023-06-07T15:16:34.853Z,20.56
2023-06-07T15:19:02.470Z,19.97
2023-06-07T15:21:30.505Z,20.54
2023-06-07T15:23:57.421Z,20.62
2023-06-07T15:26:24.200Z,20.20
2023-06-07T15:28:51.583Z,20.93
2023-06-07T15:31:21.358Z,21.54
2023-06-07T15:33:48.604Z,21.71
2023-06-07T15:36:15.559Z,21.65
2023-06-07T15:38:42.658Z,21.98
2023-06-07T15:41:09.673Z,20.47
2023-06-07T15:43:37.555Z,20.16
2023-06-07T15:46:04.909Z,21.10
2023-06-07T15:48:32.094Z,20.71
2023-06-07T15:50:59.031Z,20.52
2023-06-07T15:53:26.237Z,20.87
2023-06-07T15:55:54.619Z,22.21
2023-06-07T15:58:21.571Z,21.65
2023-06-07T16:00:49.457Z,21.40
2023-06-07T16:03:17.879Z,21.86
2023-06-07T16:05:45.202Z,22.04
2023-06-07T16:08:14.278Z,22.17
2023-06-07T16:10:43.435Z,22.15
2023-06-07T16:13:10.579Z,22.15
2023-06-07T16:15:37.905Z,21.79
2023-06-07T16:18:07.556Z,21.90
2023-06-07T16:20:35.256Z,21.94
2023-06-07T16:23:02.149Z,22.01
2023-06-07T16:25:29.279Z,22.00
2023-06-07T16:27:56.533Z,21.99
2023-06-07T16:30:23.776Z,22.65
2023-06-07T16:32:50.785Z,22.41
2023-06-07T16:35:18.112Z,22.03
2023-06-07T16:37:45.787Z,22.17
2023-06-07T16:40:12.980Z,22.04
2023-06-07T16:42:44.446Z,22.00
2023-06-07T16:45:11.967Z,22.22
2023-06-07T16:47:39.623Z,22.18
2023-06-07T16:50:07.454Z,22.37
2023-06-07T16:52:35.142Z,22.40
2023-06-07T16:55:03.501Z,21.99
2023-06-07T16:57:31.310Z,22.28
2023-06-07T16:59:59.490Z,27.84
2023-06-07T17:02:26.647Z,29.46
2023-06-07T17:04:53.632Z,31.21
2023-06-07T17:07:20.653Z,32.30
2023-06-07T17:09:48.150Z,33.15
2023-06-07T17:12:16.751Z,34.63
2023-06-07T17:14:49.357Z,35.54
2023-06-07T17:17:20.197Z,36.15
2023-06-07T17:19:47.177Z,36.87
2023-06-07T17:22:14.405Z,37.80
2023-06-07T17:24:41.451Z,39.10
2023-06-07T17:27:09.119Z,39.57
2023-06-07T17:29:36.303Z,39.35
2023-06-07T17:32:03.752Z,39.57
2023-06-07T17:34:31.070Z,39.92
2023-06-07T17:36:58.210Z,40.20
2023-06-07T17:39:26.324Z,40.19
2023-06-07T17:41:53.462Z,40.31
2023-06-07T17:44:22.916Z,40.67
2023-06-07T17:46:50.065Z,41.04
2023-06-07T17:49:19.666Z,40.79
2023-06-07T17:51:48.507Z,41.19
2023-06-07T17:54:16.775Z,41.22
2023-06-07T17:56:44.050Z,41.38
2023-06-07T17:59:11.370Z,41.43
2023-06-07T18:01:40.913Z,41.63
2023-06-07T18:04:08.427Z,41.89
2023-06-07T18:06:36.900Z,41.74
2023-06-07T18:09:04.270Z,42.11
2023-06-07T18:11:31.777Z,42.13
2023-06-07T18:13:58.911Z,42.50
2023-06-07T18:16:27.027Z,42.43
2023-06-07T18:18:54.017Z,42.83
2023-06-07T18:21:21.102Z,43.06
2023-06-07T18:23:48.434Z,42.96
2023-06-07T18:26:15.616Z,43.55
2023-06-07T18:28:43.644Z,43.70
2023-06-07T18:31:11.063Z,43.91
2023-06-07T18:33:38.241Z,43.76
2023-06-07T18:36:05.640Z,43.79
2023-06-07T18:38:32.630Z,44.45
2023-06-07T18:40:59.445Z,44.87
2023-06-07T18:43:26.640Z,45.17
2023-06-07T18:45:54.126Z,45.18
2023-06-07T18:48:22.341Z,45.66
2023-06-07T18:50:49.342Z,46.02
2023-06-07T18:53:16.276Z,45.56
2023-06-07T18:55:44.360Z,46.22
2023-06-07T18:58:11.738Z,46.34
2023-06-07T19:00:41.379Z,46.43
2023-06-07T19:03:08.827Z,46.61
2023-06-07T19:05:36.207Z,46.43
2023-06-07T19:08:03.232Z,46.64
2023-06-07T19:10:30.464Z,46.69
2023-06-07T19:12:59.038Z,47.07
2023-06-07T19:15:26.643Z,47.27
2023-06-07T19:17:54.030Z,46.98
2023-06-07T19:20:21.040Z,47.61
2023-06-07T19:22:47.940Z,47.55
2023-06-07T19:25:15.979Z,47.54
2023-06-07T19:27:43.430Z,47.48
2023-06-07T19:30:11.256Z,47.51
2023-06-07T19:32:38.711Z,47.91
2023-06-07T19:35:07.219Z,48.21
2023-06-07T19:37:35.238Z,48.40
2023-06-07T19:40:16.867Z,48.29
2023-06-07T19:42:45.470Z,48.63
2023-06-07T19:45:12.969Z,48.63
2023-06-07T19:47:40.350Z,48.66
2023-06-07T19:50:09.012Z,48.64
2023-06-07T19:52:36.348Z,48.65
2023-06-07T19:55:03.726Z,49.25
2023-06-07T19:57:31.679Z,49.23
2023-06-07T19:59:59.265Z,48.81
2023-06-07T20:02:26.931Z,48.68
2023-06-07T20:04:55.236Z,48.52
2023-06-07T20:07:39.685Z,48.49
2023-06-07T20:10:37.323Z,48.35
2023-06-07T20:13:04.768Z,48.35
2023-06-07T20:15:31.922Z,48.66
2023-06-07T20:17:58.948Z,48.52
2023-06-07T20:20:26.509Z,48.66
2023-06-07T20:22:53.622Z,48.76
2023-06-07T20:25:20.612Z,48.97
2023-06-07T20:27:51.123Z,49.61
2023-06-07T20:30:18.440Z,49.48
2023-06-07T20:32:47.541Z,49.90
2023-06-07T20:35:14.577Z,50.08
2023-06-07T20:37:41.765Z,50.27
2023-06-07T20:40:11.422Z,50.40
2023-06-07T20:42:38.826Z,50.39
2023-06-07T20:45:13.527Z,50.23
2023-06-07T20:47:41.146Z,50.53
2023-06-07T20:50:09.675Z,50.96
2023-06-07T20:52:36.637Z,50.45
2023-06-07T20:55:05.347Z,50.87
2023-06-07T20:57:32.833Z,50.86
2023-06-07T21:00:03.311Z,50.58
2023-06-07T21:02:31.072Z,51.30
2023-06-07T21:04:58.713Z,51.42
2023-06-07T21:07:26.343Z,51.71
2023-06-07T21:09:54.733Z,51.97
2023-06-07T21:12:22.154Z,52.56
2023-06-07T21:14:49.832Z,52.87
2023-06-07T21:17:20.503Z,53.11
2023-06-07T21:19:48.530Z,52.83
2023-06-07T21:22:15.600Z,53.18
2023-06-07T21:24:42.574Z,52.99
2023-06-07T21:27:09.608Z,53.12
2023-06-07T21:29:36.829Z,52.95
2023-06-07T21:32:04.608Z,52.78
2023-06-07T21:34:32.019Z,52.78
2023-06-07T21:36:59.849Z,52.95
2023-06-07T21:39:55.851Z,52.81
2023-06-07T21:42:33.368Z,52.59
2023-06-07T21:45:15.513Z,52.79
2023-06-07T21:47:43.999Z,52.54
2023-06-07T21:50:11.445Z,52.67
2023-06-07T21:52:39.288Z,52.54
2023-06-07T21:55:06.566Z,53.25
2023-06-07T21:57:42.961Z,53.69
2023-06-07T22:00:12.279Z,53.46
2023-06-07T22:02:42.143Z,53.52
2023-06-07T22:05:09.426Z,53.46
2023-06-07T22:07:36.312Z,53.81
2023-06-07T22:10:03.881Z,53.71
2023-06-07T22:12:32.178Z,53.63
2023-06-07T22:15:01.863Z,53.96
2023-06-07T22:17:31.960Z,53.63
2023-06-07T22:20:04.414Z,53.92
2023-06-07T22:22:32.078Z,54.05
2023-06-07T22:25:00.506Z,54.34
2023-06-07T22:27:29.930Z,54.24
2023-06-07T22:29:58.756Z,54.38
2023-06-07T22:32:30.451Z,54.47
2023-06-07T22:35:05.066Z,54.12
2023-06-07T22:37:33.908Z,53.93
2023-06-07T22:40:01.738Z,54.22
2023-06-07T22:42:28.673Z,54.01
2023-06-07T22:44:56.145Z,54.26
2023-06-07T22:47:24.994Z,54.31
2023-06-07T22:49:57.903Z,55.29
2023-06-07T22:52:25.158Z,54.98
2023-06-07T22:54:52.217Z,55.78
2023-06-07T22:57:19.353Z,55.98
2023-06-07T22:59:46.270Z,55.76
2023-06-07T23:02:13.355Z,55.94
2023-06-07T23:04:40.410Z,56.21
2023-06-07T23:07:10.432Z,56.19
2023-06-07T23:09:38.145Z,55.77
2023-06-07T23:12:10.103Z,56.06
2023-06-07T23:14:37.612Z,56.02
2023-06-07T23:17:06.123Z,56.30
2023-06-07T23:19:33.546Z,56.39
2023-06-07T23:22:00.605Z,56.23
2023-06-07T23:24:30.883Z,56.45
2023-06-07T23:27:03.003Z,56.17
2023-06-07T23:29:30.574Z,56.12
2023-06-07T23:31:57.854Z,56.28
2023-06-07T23:34:25.918Z,56.29
2023-06-07T23:36:53.085Z,56.46
2023-06-07T23:39:20.274Z,56.34
2023-06-07T23:41:48.300Z,56.65
2023-06-07T23:44:27.202Z,56.52
2023-06-07T23:46:55.629Z,57.21
2023-06-07T23:49:28.323Z,57.09
2023-06-07T23:51:55.278Z,56.89
2023-06-07T23:54:22.544Z,57.11
2023-06-07T23:56:50.147Z,57.39
2023-06-07T23:59:17.013Z,57.48
